Markus Lang

Recruteur en chef - VfL Wolfsburg
4 Avr 2027
Dimanche
Processus

Personnalité

Adaptabilité (11) Ambition (13) Controverse (15) Loyauté (16) Pression (12) Professionnalisme (3) Sportivité (8) Tempérament (8)

Profil

Style d'entraînement Démocratique
Diplôme Continental A
Détermination 11
Gestion des joueurs 7
Motivation 14
Discipline 8
Satisfaction professionnelle
66%
Fatigue
0%
Rôle Recruteur en chef
Salaire 79.8K p/s
Contrat 14.03.2029

Performance

Comportement Bon
Efficacité de l'entraînement
37%
Développement des joueurs
40%
Prévention des blessures
75%
Mise en place tactique
55%

Événements récents

A évalué un joueur maintenant
A participé à une réunion de recrutement maintenant
A recommandé une cible de transfert maintenant
A recommandé une cible de transfert maintenant
A évalué un joueur maintenant
A évalué un joueur maintenant
A évalué un joueur 7j
A évalué un joueur 7j

Suivi en cours

174
Joueur Club Statut Capacité Confiance Observé Dernière observation Dernier vote
Yves Bissouma Tottenham Actif 153 / 139 40% 3 02.04.2027 -
Pablo Rosario Porto Actif 148 / 133 40% 5 02.04.2027 -
Philipp Lienhart SC Freiburg Actif 154 / 146 40% 3 01.04.2027 -
Seiya Maikuma AZ Actif 138 / 141 40% 1 01.04.2027 -
Ben Ahmed Kohili Paradou Actif 112 / 104 40% 1 01.04.2027 -
Gorka Carrera Real Sociedad Actif 123 / 116 40% 1 01.04.2027 -
Marcos Antonio Sport Recife Actif 141 / 134 40% 2 30.03.2027 -
Merih Demiral Al-Ahli Actif 130 / 126 40% 1 30.03.2027 -
Sébastien Durand Tours Actif 146 / 136 40% 3 29.03.2027 -
Thierry Rendall Correia Venezia Actif 139 / 146 40% 3 29.03.2027 -
Marcel Ruiz Toluca Actif 149 / 148 40% 3 28.03.2027 -
Michel Ndary Adopo Cagliari Actif 140 / 142 40% 1 28.03.2027 -
Munir Albacete Actif 126 / 120 40% 1 28.03.2027 -
Daniel Muñoz Racing Genk Actif 155 / 148 40% 3 26.03.2027 -
Emam Ashour Al Ahly Actif 135 / 137 40% 4 26.03.2027 -
Roger Ibañez Al-Ahli Actif 160 / 154 40% 6 25.03.2027 -
Davide Calabria Panathinaikos Actif 138 / 132 40% 3 25.03.2027 -
Richard Ledezma Guadalajara Actif 150 / 125 40% 2 23.03.2027 -
Renan Lodi Atlético Mineiro Actif 121 / 138 40% 4 22.03.2027 -
Nino Zenit Actif 148 / 140 40% 3 22.03.2027 -
Malcom Al Jazira Actif 148 / 160 40% 5 21.03.2027 -
Pedro Malheiro Al Wasl Actif 137 / 144 40% 1 21.03.2027 -
Roger Brugué Levante Actif 123 / 127 40% 1 21.03.2027 -
Nayef Aguerd Olympique de Marseille Actif 149 / 144 40% 8 19.03.2027 -
Hwang In-Beom Porto Actif 147 / 144 40% 3 19.03.2027 -
Djibril Sow Genoa Actif 139 / 140 40% 4 18.03.2027 -
Diego Costa Krasnodar Actif 131 / 141 40% 1 17.03.2027 -
Jan Bednarek Porto Actif 154 / 148 40% 10 16.03.2027 -
Iqraam Rayners Mamelodi Sundowns Actif 121 / 135 40% 1 16.03.2027 -
Helinho Toluca Actif 148 / 135 40% 1 16.03.2027 -
Isi Palazón Rayo Vallecano Actif 147 / 136 40% 5 14.03.2027 -
Sandro Las Palmas Actif 130 / 128 40% 2 14.03.2027 -
Davinson Sánchez Galatasaray Actif 136 / 155 40% 9 12.03.2027 -
Eren Elmalı Galatasaray Actif 133 / 133 40% 1 12.03.2027 -
Jean Rodriguez Chamois Niortais Actif 152 / 142 40% 7 11.03.2027 -
Percy Erasmus SuperSport United Actif 123 / 116 40% 1 11.03.2027 -
Zizo Al Ahly Actif 131 / 132 40% 1 11.03.2027 -
Kauã Elias Shakhtar Actif 131 / 130 40% 1 10.03.2027 -
Dom Ballard Leyton Orient Actif 129 / 126 40% 1 10.03.2027 -
Valentino Lazaro Al Ain Actif 149 / 130 40% 2 06.03.2027 -
Sikou Niakaté Braga Actif 128 / 141 40% 1 05.03.2027 -
Lucas Paquetá Flamengo Actif 148 / 149 40% 3 04.03.2027 -
Álex Valle Como Actif 145 / 138 40% 1 03.03.2027 -
Marquinhos Spartak Moscow Actif 125 / 125 40% 1 03.03.2027 -
Efraín Álvarez Guadalajara Actif 136 / 130 40% 1 03.03.2027 -
Maher Carrizo Ajax Actif 132 / 126 40% 1 02.03.2027 -
Pablo Maffeo Olympiacos Actif 152 / 136 40% 2 28.02.2027 -
Oleksandr Zinchenko Fenerbahce Actif 155 / 145 40% 3 26.02.2027 -
Mohamed Simakan Al-Nassr Actif 130 / 135 40% 3 24.02.2027 -
Youssef Al Bloushi Al Shabab Actif 157 / 149 40% 1 24.02.2027 -
Bart van Rooij Twente Actif 133 / 140 40% 1 23.02.2027 -
Lukas Klostermann RB Leipzig Actif 126 / 133 40% 3 20.02.2027 -
Oussama Targhalline Feyenoord Actif 129 / 135 40% 2 19.02.2027 -
Gustaf Lagerbielke Braga Actif 144 / 131 40% 1 07.02.2027 -
Odilon Kossounou Atalanta Actif 137 / 140 40% 1 06.02.2027 -
Federico Pereira Toluca Actif 125 / 134 40% 1 05.02.2027 -
Batista Mendy Trabzonspor Actif 129 / 142 40% 2 04.02.2027 -
Danilo Botafogo Actif 123 / 139 40% 1 04.02.2027 -
Rasmus Kristensen FC Midtjylland Actif 149 / 150 40% 1 03.02.2027 -
Moussa Niakhaté Olympique Lyonnais Actif 138 / 143 40% 4 01.02.2027 -
Toni Fruk Anderlecht Actif 132 / 133 66% 1 11.01.2027 Approuver
Kyle Walker-Peters West Ham United Actif 139 / 134 40% 1 10.01.2027 -
Ismaël Bennacer Palmeiras Actif 143 / 147 40% 2 08.01.2027 -
Aleix Febas Celta Actif 133 / 144 40% 1 07.01.2027 -
Yacine Adli Al-Shabab Actif 127 / 149 40% 1 05.01.2027 -
Antoine Guérin Chamois Niortais Actif 162 / 154 40% 1 02.01.2027 -
Roberto Alvarado Guadalajara Actif 139 / 139 66% 1 01.01.2027 Approuver
Jaden Philogene Ipswich Town Perdu 136 / 137 66% 1 01.01.2027 Approuver
Jakub Moder Feyenoord Actif 143 / 145 40% 3 29.12.2026 -
Benjamin Henrichs RB Leipzig Actif 153 / 142 40% 1 29.12.2026 -
Lucas Torreira Galatasaray Actif 151 / 160 40% 5 28.12.2026 -
Nehuén Pérez Porto Actif 145 / 136 40% 1 28.12.2026 -
Caio Henrique Ajax Actif 137 / 130 40% 1 27.12.2026 -
Takumi Minamino Monaco Actif 141 / 132 40% 1 27.12.2026 -
Wilfried Singo Galatasaray Actif 151 / 143 40% 1 25.12.2026 -
Israel Reyes Club America Actif 130 / 133 40% 3 24.12.2026 -
Bernardo TSG Hoffenheim Actif 132 / 140 40% 2 23.12.2026 -
Farès Chaïbi Eintracht Frankfurt Actif 132 / 148 40% 1 23.12.2026 -
Alexis Vega Toluca Actif 149 / 148 40% 4 19.12.2026 -
Grischa Prömel Heidenheim Actif 150 / 135 40% 1 19.12.2026 -
Radek Vítek Middlesbrough Actif 130 / 138 40% 3 17.12.2026 -
Sebastián Córdova Pumas UNAM Actif 129 / 133 40% 1 17.12.2026 -
Marvin Keller Young Boys Actif 142 / 144 40% 1 17.12.2026 -
Ajay Matthews Millwall Actif 97 / 104 40% 1 17.12.2026 -
Aitor Ruibal Betis Actif 145 / 141 40% 1 14.12.2026 -
Patrick Berg Bodo/Glimt Actif 128 / 148 40% 2 11.12.2026 -
Iván Martín Racing Club Actif 158 / 156 40% 3 10.12.2026 -
Matthieu Udol RC Lens Actif 129 / 131 40% 1 10.12.2026 -
David Fernández O'Higgins Actif 112 / 123 40% 2 09.12.2026 -
Beñat Turrientes Real Sociedad Actif 147 / 139 40% 1 07.12.2026 -
Lukáš Provod Slavia Prague Actif 154 / 138 40% 4 05.12.2026 -
Ryan Kavuma-McQueen Chelsea Actif 95 / 119 40% 2 04.12.2026 -
Esequiel Barco Spartak Moscow Actif 137 / 135 40% 1 04.12.2026 -
Furkan Dursun Thun Actif 101 / 111 40% 4 03.12.2026 -
Dženan Pejčinović VfB Stuttgart Actif 130 / 131 40% 1 03.12.2026 -
Théo Hernández Al-Hilal Actif 140 / 138 40% 2 02.12.2026 -
Hidemasa Morita Hull City Actif 152 / 137 40% 3 29.11.2026 -
Mauro Arambarri River Plate Actif 170 / 166 40% 5 28.11.2026 -
Axel Openda KV Oostende Actif 128 / 125 40% 2 27.11.2026 -
Nikolay Zlatev Cherno More Actif 105 / 110 40% 2 25.11.2026 -
Christos Zafeiris Galatasaray Actif 125 / 144 40% 1 25.11.2026 -
Agustín Palavecino Cruz Azul Actif 149 / 141 40% 4 24.11.2026 -
Diego Coppola Paris FC Actif 148 / 141 40% 1 24.11.2026 -
Fabrício Bruno Cruzeiro Actif 127 / 146 40% 1 21.11.2026 -
Stephen Eustáquio Swansea City Actif 127 / 138 40% 1 19.11.2026 -
Soufiane Rahimi Al Ain Actif 124 / 131 40% 1 19.11.2026 -
Ainsley Maitland-Niles Olympique Lyonnais Actif 138 / 130 40% 1 15.11.2026 -
Martinelli Fluminense Actif 132 / 126 40% 1 14.11.2026 -
Luis Romo Guadalajara Actif 127 / 146 40% 2 09.11.2026 -
Orbelín Pineda Monterrey Actif 148 / 148 40% 3 08.11.2026 -
Sofyan Amrabat Ajax Actif 130 / 142 40% 1 06.11.2026 -
Gabriel Sara Galatasaray Actif 131 / 138 40% 1 05.11.2026 -
Timothy Castagne Fulham Actif 131 / 141 40% 1 04.11.2026 -
Léo Ortiz Flamengo Actif 128 / 145 40% 2 03.11.2026 -
Brais Méndez Columbus Crew Actif 154 / 136 40% 1 01.11.2026 -
Javi Galán Celta Actif 141 / 150 40% 5 31.10.2026 -
Kenny Tete Fulham Actif 136 / 136 40% 3 30.10.2026 -
José Paradela Cruz Azul Actif 151 / 131 40% 7 29.10.2026 -
Sergio Reguilón Inter Miami CF Actif 138 / 133 40% 2 29.10.2026 -
Jon Guridi Sevilla Actif 138 / 130 40% 1 28.10.2026 -
Ritsu Doan Gamba Osaka Actif 152 / 140 40% 2 26.10.2026 -
Donnell McNeilly Nottingham Forest Actif 102 / 118 40% 1 26.10.2026 -
Will Lankshear Middlesbrough Actif 111 / 131 40% 3 23.10.2026 -
Cesar Corona Veracruz Actif 126 / 135 40% 2 22.10.2026 -
Hany Mukhtar Hamburger SV Actif 125 / 136 40% 1 22.10.2026 -
Haissem Hassan Bloemfontein Celtic Actif 149 / 140 40% 1 20.10.2026 -
Sergej Milinković-Savić Al-Hilal Actif 145 / 154 40% 1 20.10.2026 -
Héctor Bellerín Betis Actif 132 / 134 40% 2 19.10.2026 -
Jesus Sinisterra Sevilla Actif 138 / 150 40% 1 18.10.2026 -
Nicolás Fernández Mercau New York City Actif 150 / 128 40% 1 17.10.2026 -
Óliver Monterrey Actif 151 / 129 40% 2 16.10.2026 -
Michy Fellaini KV Oostende Actif 128 / 138 40% 1 15.10.2026 -
Alejandro Zendejas Club America Actif 125 / 137 40% 3 11.10.2026 -
Gorka Guruzeta Athletic Bilbao Actif 152 / 146 40% 2 10.10.2026 -
Alexander Lyng SonderjyskE Actif 127 / 116 40% 2 09.10.2026 -
Ilias Akhomach Villarreal Actif 129 / 135 40% 2 06.10.2026 -
Santiago Montiel Independiente Actif 135 / 124 40% 1 04.10.2026 -
Leandro Lozano Boca Juniors Actif 125 / 114 40% 1 04.10.2026 -
Jesús Angulo Tigres Actif 130 / 131 40% 1 04.10.2026 -
Denis Bouanga Los Angeles Football Club Actif 124 / 146 40% 1 04.10.2026 -
Conrad Harder RB Leipzig Actif 122 / 135 40% 1 02.10.2026 -
Ryan Gauld Vancouver Whitecaps Actif 132 / 146 40% 1 01.10.2026 -
Jens Petter Hauge Bodo/Glimt Actif 128 / 137 40% 1 29.09.2026 -
Arkaitz Mariezkurrena Real Sociedad Actif 109 / 122 40% 2 28.09.2026 -
Yoshan Valois Lanús Actif 124 / 128 40% 1 28.09.2026 -
Adama Traoré Deportivo La Coruña Actif 127 / 139 40% 4 26.09.2026 -
Fernando Gorriarán Tigres Actif 124 / 137 40% 2 25.09.2026 -
Takuma Asano Sanfrecce Hiroshima Actif 124 / 148 40% 1 22.09.2026 -
Eliezer Mayenda Stade Rennais Actif 130 / 134 40% 1 21.09.2026 -
Justin Hammel Grasshopper Actif 109 / 127 40% 1 20.09.2026 -
Michael Cooper Sheffield United Actif 135 / 122 40% 1 20.09.2026 -
Marco Asensio Fenerbahce Actif 163 / 147 40% 1 14.09.2026 -
Jonathan Bamba Chicago Fire Actif 120 / 135 40% 1 14.09.2026 -
Diego Conde Villarreal Actif 129 / 131 40% 1 14.09.2026 -
Thiago Almada River Plate Actif 161 / 137 40% 3 12.09.2026 -
Luke Baartman Chippa United Actif 110 / 95 40% 2 05.09.2026 -
Ángel Correa River Plate Actif 138 / 147 40% 1 05.09.2026 -
Evander FC Cincinnati Actif 121 / 144 40% 1 02.09.2026 -
Kasra Taheri Sepahan Actif 122 / 118 40% 1 01.09.2026 -
Vitor Roque Palmeiras Actif 126 / 135 40% 1 01.09.2026 -
Rayan Fofana RC Lens Actif 121 / 123 40% 1 31.08.2026 -
Rocco Vata Watford Actif 122 / 127 40% 1 29.08.2026 -
Leon Bailey Aston Villa Actif 141 / 134 40% 1 28.08.2026 -
Josip Juranović Union Berlin Actif 139 / 128 40% 1 25.08.2026 -
Rúben Neves Al-Hilal Actif 160 / 142 40% 1 24.08.2026 -
Samú Al-Nassr Actif 128 / 159 40% 2 21.08.2026 -
Saša Lukić Ipswich Town Actif 142 / 133 40% 1 19.08.2026 -
Alan Varela Porto Actif 149 / 150 40% 1 19.08.2026 -
Rico Henry RB Leipzig Actif 133 / 140 40% 1 18.08.2026 -
Antonín Kinský Tottenham Actif 127 / 139 40% 1 11.08.2026 -
Patrick Mainka Heidenheim Actif 141 / 135 58% 1 10.08.2026 -
Uwe Franke Mouscron Actif 128 / 137 40% 1 04.08.2026 -
Jan Paul van Hecke Tottenham Actif 158 / 161 40% 1 02.08.2026 -
Robin Koch Eintracht Frankfurt Actif 148 / 146 40% 1 02.08.2026 -